sensor_id;sensor_type;location;lat;lon;timestamp;temperature;humidity
41953;DHT22;47381;28.206;112.926;2022-08-19T00:01:57;34.20;51.90
41953;DHT22;47381;28.206;112.926;2022-08-19T00:04:28;34.20;52.20
41953;DHT22;47381;28.206;112.926;2022-08-19T00:06:56;34.20;52.10
41953;DHT22;47381;28.206;112.926;2022-08-19T00:09:25;34.20;51.80
41953;DHT22;47381;28.206;112.926;2022-08-19T00:11:54;34.20;51.60
41953;DHT22;47381;28.206;112.926;2022-08-19T00:14:22;34.20;51.30
41953;DHT22;47381;28.206;112.926;2022-08-19T00:16:50;34.20;50.00
41953;DHT22;47381;28.206;112.926;2022-08-19T00:19:24;34.20;51.60
41953;DHT22;47381;28.206;112.926;2022-08-19T00:21:53;34.20;50.60
41953;DHT22;47381;28.206;112.926;2022-08-19T00:24:21;34.20;49.30
41953;DHT22;47381;28.206;112.926;2022-08-19T00:26:51;34.20;50.00
41953;DHT22;47381;28.206;112.926;2022-08-19T00:29:24;34.20;50.40
41953;DHT22;47381;28.206;112.926;2022-08-19T00:31:56;34.20;49.90
41953;DHT22;47381;28.206;112.926;2022-08-19T00:34:36;34.30;51.10
41953;DHT22;47381;28.206;112.926;2022-08-19T00:37:04;34.30;50.80
41953;DHT22;47381;28.206;112.926;2022-08-19T00:39:42;34.20;50.30
41953;DHT22;47381;28.206;112.926;2022-08-19T00:42:09;34.30;50.60
41953;DHT22;47381;28.206;112.926;2022-08-19T00:44:39;34.20;51.00
41953;DHT22;47381;28.206;112.926;2022-08-19T00:47:09;34.30;51.50
41953;DHT22;47381;28.206;112.926;2022-08-19T00:49:47;34.30;51.30
41953;DHT22;47381;28.206;112.926;2022-08-19T00:52:27;34.30;50.60
41953;DHT22;47381;28.206;112.926;2022-08-19T00:55:09;34.30;50.90
41953;DHT22;47381;28.206;112.926;2022-08-19T00:57:44;34.30;50.50
41953;DHT22;47381;28.206;112.926;2022-08-19T01:00:23;34.30;51.10
41953;DHT22;47381;28.206;112.926;2022-08-19T01:03:07;34.30;51.50
41953;DHT22;47381;28.206;112.926;2022-08-19T01:05:39;34.30;52.00
41953;DHT22;47381;28.206;112.926;2022-08-19T01:08:29;34.40;52.20
41953;DHT22;47381;28.206;112.926;2022-08-19T01:10:58;34.40;52.70
41953;DHT22;47381;28.206;112.926;2022-08-19T01:13:29;34.40;51.40
41953;DHT22;47381;28.206;112.926;2022-08-19T01:16:08;34.40;51.10
41953;DHT22;47381;28.206;112.926;2022-08-19T01:18:43;34.40;51.20
41953;DHT22;47381;28.206;112.926;2022-08-19T01:21:38;34.40;51.50
41953;DHT22;47381;28.206;112.926;2022-08-19T01:24:09;34.40;51.90
41953;DHT22;47381;28.206;112.926;2022-08-19T01:26:46;34.40;52.00
41953;DHT22;47381;28.206;112.926;2022-08-19T01:29:17;34.40;50.00
41953;DHT22;47381;28.206;112.926;2022-08-19T01:31:51;34.40;50.10
41953;DHT22;47381;28.206;112.926;2022-08-19T01:34:22;34.50;50.40
41953;DHT22;47381;28.206;112.926;2022-08-19T01:36:54;34.50;50.70
41953;DHT22;47381;28.206;112.926;2022-08-19T01:39:24;34.50;50.70
41953;DHT22;47381;28.206;112.926;2022-08-19T01:41:56;34.50;50.70
41953;DHT22;47381;28.206;112.926;2022-08-19T01:44:43;34.50;50.00
41953;DHT22;47381;28.206;112.926;2022-08-19T01:47:11;34.50;50.50
41953;DHT22;47381;28.206;112.926;2022-08-19T01:49:39;34.60;50.30
41953;DHT22;47381;28.206;112.926;2022-08-19T01:52:07;34.50;50.40
41953;DHT22;47381;28.206;112.926;2022-08-19T01:54:46;34.60;49.90
41953;DHT22;47381;28.206;112.926;2022-08-19T01:57:15;34.60;50.00
41953;DHT22;47381;28.206;112.926;2022-08-19T01:59:46;34.60;50.40
41953;DHT22;47381;28.206;112.926;2022-08-19T02:02:15;34.60;50.60
41953;DHT22;47381;28.206;112.926;2022-08-19T02:05:05;34.70;50.80
41953;DHT22;47381;28.206;112.926;2022-08-19T02:07:35;34.60;49.90
41953;DHT22;47381;28.206;112.926;2022-08-19T02:10:13;34.60;49.70
41953;DHT22;47381;28.206;112.926;2022-08-19T02:12:44;34.60;48.30
41953;DHT22;47381;28.206;112.926;2022-08-19T02:15:18;34.60;48.20
41953;DHT22;47381;28.206;112.926;2022-08-19T02:17:46;34.70;49.50
41953;DHT22;47381;28.206;112.926;2022-08-19T02:20:19;34.70;50.00
41953;DHT22;47381;28.206;112.926;2022-08-19T02:22:49;34.70;50.40
41953;DHT22;47381;28.206;112.926;2022-08-19T02:25:20;34.70;50.40
41953;DHT22;47381;28.206;112.926;2022-08-19T02:27:47;34.70;50.00
41953;DHT22;47381;28.206;112.926;2022-08-19T02:30:16;34.80;50.40
41953;DHT22;47381;28.206;112.926;2022-08-19T02:32:44;34.80;49.70
41953;DHT22;47381;28.206;112.926;2022-08-19T02:35:14;34.80;49.10
41953;DHT22;47381;28.206;112.926;2022-08-19T02:37:42;34.80;49.70
41953;DHT22;47381;28.206;112.926;2022-08-19T02:40:30;34.80;49.50
41953;DHT22;47381;28.206;112.926;2022-08-19T02:43:05;34.80;49.60
41953;DHT22;47381;28.206;112.926;2022-08-19T02:45:42;34.90;48.70
41953;DHT22;47381;28.206;112.926;2022-08-19T02:48:15;34.90;48.40
41953;DHT22;47381;28.206;112.926;2022-08-19T02:50:45;34.90;48.80
41953;DHT22;47381;28.206;112.926;2022-08-19T02:53:17;35.00;48.90
41953;DHT22;47381;28.206;112.926;2022-08-19T02:55:59;35.00;48.80
41953;DHT22;47381;28.206;112.926;2022-08-19T02:58:31;34.90;48.30
41953;DHT22;47381;28.206;112.926;2022-08-19T03:01:26;35.00;48.20
41953;DHT22;47381;28.206;112.926;2022-08-19T03:04:23;35.00;47.90
41953;DHT22;47381;28.206;112.926;2022-08-19T03:07:31;35.00;47.20
41953;DHT22;47381;28.206;112.926;2022-08-19T03:10:17;35.10;46.60
41953;DHT22;47381;28.206;112.926;2022-08-19T03:13:33;35.00;46.60
41953;DHT22;47381;28.206;112.926;2022-08-19T03:16:20;35.10;46.30
41953;DHT22;47381;28.206;112.926;2022-08-19T03:19:15;35.10;46.40
41953;DHT22;47381;28.206;112.926;2022-08-19T03:21:48;35.20;46.40
41953;DHT22;47381;28.206;112.926;2022-08-19T03:24:16;35.20;46.40
41953;DHT22;47381;28.206;112.926;2022-08-19T03:26:49;35.20;46.00
41953;DHT22;47381;28.206;112.926;2022-08-19T03:29:18;35.20;45.90
41953;DHT22;47381;28.206;112.926;2022-08-19T03:31:46;35.20;46.10
41953;DHT22;47381;28.206;112.926;2022-08-19T03:34:17;35.20;46.10
41953;DHT22;47381;28.206;112.926;2022-08-19T03:36:46;35.30;46.00
41953;DHT22;47381;28.206;112.926;2022-08-19T03:39:14;35.30;45.80
41953;DHT22;47381;28.206;112.926;2022-08-19T03:41:44;35.30;45.60
41953;DHT22;47381;28.206;112.926;2022-08-19T03:44:15;35.30;45.70
41953;DHT22;47381;28.206;112.926;2022-08-19T03:46:45;35.30;45.60
41953;DHT22;47381;28.206;112.926;2022-08-19T03:49:12;35.40;45.70
41953;DHT22;47381;28.206;112.926;2022-08-19T03:51:40;35.40;46.00
41953;DHT22;47381;28.206;112.926;2022-08-19T03:54:11;35.40;45.60
41953;DHT22;47381;28.206;112.926;2022-08-19T03:56:41;35.40;45.20
41953;DHT22;47381;28.206;112.926;2022-08-19T03:59:11;35.40;45.20
41953;DHT22;47381;28.206;112.926;2022-08-19T04:01:39;35.50;45.40
41953;DHT22;47381;28.206;112.926;2022-08-19T04:04:07;35.50;45.50
41953;DHT22;47381;28.206;112.926;2022-08-19T04:06:36;35.60;45.70
41953;DHT22;47381;28.206;112.926;2022-08-19T04:09:07;35.60;45.50
41953;DHT22;47381;28.206;112.926;2022-08-19T04:11:39;35.70;45.50
41953;DHT22;47381;28.206;112.926;2022-08-19T04:14:15;35.70;45.60
41953;DHT22;47381;28.206;112.926;2022-08-19T04:16:44;35.70;45.60
41953;DHT22;47381;28.206;112.926;2022-08-19T04:19:15;35.70;45.40
41953;DHT22;47381;28.206;112.926;2022-08-19T04:22:15;35.70;45.20
41953;DHT22;47381;28.206;112.926;2022-08-19T04:25:11;35.80;45.50
41953;DHT22;47381;28.206;112.926;2022-08-19T04:27:39;35.80;45.50
41953;DHT22;47381;28.206;112.926;2022-08-19T04:30:09;35.90;45.60
41953;DHT22;47381;28.206;112.926;2022-08-19T04:32:41;35.90;45.30
41953;DHT22;47381;28.206;112.926;2022-08-19T04:35:16;35.90;45.20
41953;DHT22;47381;28.206;112.926;2022-08-19T04:37:44;35.90;45.30
41953;DHT22;47381;28.206;112.926;2022-08-19T04:40:15;36.00;45.20
41953;DHT22;47381;28.206;112.926;2022-08-19T04:43:15;36.00;44.90
41953;DHT22;47381;28.206;112.926;2022-08-19T04:45:53;36.10;45.10
41953;DHT22;47381;28.206;112.926;2022-08-19T04:48:25;36.10;45.10
41953;DHT22;47381;28.206;112.926;2022-08-19T04:50:58;36.10;45.20
41953;DHT22;47381;28.206;112.926;2022-08-19T04:53:30;36.20;45.10
41953;DHT22;47381;28.206;112.926;2022-08-19T04:56:11;36.20;44.80
41953;DHT22;47381;28.206;112.926;2022-08-19T04:58:49;36.20;44.80
41953;DHT22;47381;28.206;112.926;2022-08-19T05:01:24;36.20;44.80
41953;DHT22;47381;28.206;112.926;2022-08-19T05:03:55;36.30;44.20
41953;DHT22;47381;28.206;112.926;2022-08-19T05:06:30;36.20;44.20
41953;DHT22;47381;28.206;112.926;2022-08-19T05:09:05;36.30;44.40
41953;DHT22;47381;28.206;112.926;2022-08-19T05:11:36;36.30;44.30
41953;DHT22;47381;28.206;112.926;2022-08-19T05:14:07;36.40;44.00
41953;DHT22;47381;28.206;112.926;2022-08-19T05:16:40;36.40;43.90
41953;DHT22;47381;28.206;112.926;2022-08-19T05:19:13;36.40;43.80
41953;DHT22;47381;28.206;112.926;2022-08-19T05:22:05;36.40;43.80
41953;DHT22;47381;28.206;112.926;2022-08-19T05:24:52;36.50;44.00
41953;DHT22;47381;28.206;112.926;2022-08-19T05:27:24;36.60;43.70
41953;DHT22;47381;28.206;112.926;2022-08-19T05:29:58;36.60;43.40
41953;DHT22;47381;28.206;112.926;2022-08-19T05:33:07;36.60;43.50
41953;DHT22;47381;28.206;112.926;2022-08-19T05:35:41;36.40;43.40
41953;DHT22;47381;28.206;112.926;2022-08-19T05:38:09;36.60;43.60
41953;DHT22;47381;28.206;112.926;2022-08-19T05:40:39;36.60;42.50
41953;DHT22;47381;28.206;112.926;2022-08-19T05:43:17;36.60;42.90
41953;DHT22;47381;28.206;112.926;2022-08-19T05:45:49;36.60;42.90
41953;DHT22;47381;28.206;112.926;2022-08-19T05:48:17;36.60;43.00
41953;DHT22;47381;28.206;112.926;2022-08-19T05:51:10;36.70;43.40
41953;DHT22;47381;28.206;112.926;2022-08-19T05:53:39;36.70;43.40
41953;DHT22;47381;28.206;112.926;2022-08-19T05:56:20;36.70;43.60
41953;DHT22;47381;28.206;112.926;2022-08-19T05:58:47;36.60;43.40
41953;DHT22;47381;28.206;112.926;2022-08-19T06:01:55;36.60;42.80
41953;DHT22;47381;28.206;112.926;2022-08-19T06:04:42;36.70;42.60
41953;DHT22;47381;28.206;112.926;2022-08-19T06:07:13;36.70;42.50
41953;DHT22;47381;28.206;112.926;2022-08-19T06:09:45;36.70;41.80
41953;DHT22;47381;28.206;112.926;2022-08-19T06:12:12;36.70;42.50
41953;DHT22;47381;28.206;112.926;2022-08-19T06:14:49;36.70;41.90
41953;DHT22;47381;28.206;112.926;2022-08-19T06:17:20;36.70;41.80
41953;DHT22;47381;28.206;112.926;2022-08-19T06:19:52;36.80;42.40
41953;DHT22;47381;28.206;112.926;2022-08-19T06:22:27;36.70;42.10
41953;DHT22;47381;28.206;112.926;2022-08-19T06:25:26;36.70;42.00
41953;DHT22;47381;28.206;112.926;2022-08-19T06:28:16;36.70;41.80
41953;DHT22;47381;28.206;112.926;2022-08-19T06:31:18;36.80;41.40
41953;DHT22;47381;28.206;112.926;2022-08-19T06:34:04;36.90;42.50
41953;DHT22;47381;28.206;112.926;2022-08-19T06:36:40;36.90;42.10
41953;DHT22;47381;28.206;112.926;2022-08-19T06:39:32;36.80;42.30
41953;DHT22;47381;28.206;112.926;2022-08-19T06:42:24;36.70;42.10
41953;DHT22;47381;28.206;112.926;2022-08-19T06:45:10;36.70;42.10
41953;DHT22;47381;28.206;112.926;2022-08-19T06:50:30;36.70;42.40
41953;DHT22;47381;28.206;112.926;2022-08-19T06:53:10;36.70;42.50
41953;DHT22;47381;28.206;112.926;2022-08-19T06:55:47;36.70;42.20
41953;DHT22;47381;28.206;112.926;2022-08-19T06:58:15;36.70;41.90
41953;DHT22;47381;28.206;112.926;2022-08-19T07:00:44;36.70;41.70
41953;DHT22;47381;28.206;112.926;2022-08-19T07:03:20;36.70;42.00
41953;DHT22;47381;28.206;112.926;2022-08-19T07:06:15;36.70;42.20
41953;DHT22;47381;28.206;112.926;2022-08-19T07:08:48;36.70;42.20
41953;DHT22;47381;28.206;112.926;2022-08-19T07:11:18;36.70;42.20
41953;DHT22;47381;28.206;112.926;2022-08-19T07:13:51;36.70;42.40
41953;DHT22;47381;28.206;112.926;2022-08-19T07:16:34;36.70;41.70
41953;DHT22;47381;28.206;112.926;2022-08-19T07:19:08;36.60;41.90
41953;DHT22;47381;28.206;112.926;2022-08-19T07:21:37;36.70;41.90
41953;DHT22;47381;28.206;112.926;2022-08-19T07:24:07;36.70;41.70
41953;DHT22;47381;28.206;112.926;2022-08-19T07:27:01;36.70;41.80
41953;DHT22;47381;28.206;112.926;2022-08-19T07:29:36;36.70;41.60
41953;DHT22;47381;28.206;112.926;2022-08-19T07:32:07;36.70;41.40
41953;DHT22;47381;28.206;112.926;2022-08-19T07:35:32;36.70;41.90
41953;DHT22;47381;28.206;112.926;2022-08-19T07:38:23;36.70;41.60
41953;DHT22;47381;28.206;112.926;2022-08-19T07:40:53;36.70;42.30
41953;DHT22;47381;28.206;112.926;2022-08-19T07:43:51;36.70;42.40
41953;DHT22;47381;28.206;112.926;2022-08-19T07:46:33;36.60;42.30
41953;DHT22;47381;28.206;112.926;2022-08-19T07:49:22;36.70;42.30
41953;DHT22;47381;28.206;112.926;2022-08-19T07:52:15;36.70;41.60
41953;DHT22;47381;28.206;112.926;2022-08-19T07:54:45;36.70;41.40
41953;DHT22;47381;28.206;112.926;2022-08-19T07:57:15;36.60;42.10
41953;DHT22;47381;28.206;112.926;2022-08-19T07:59:48;36.60;42.30
41953;DHT22;47381;28.206;112.926;2022-08-19T08:02:20;36.60;41.70
41953;DHT22;47381;28.206;112.926;2022-08-19T08:04:53;36.60;41.50
41953;DHT22;47381;28.206;112.926;2022-08-19T08:07:48;36.60;41.60
41953;DHT22;47381;28.206;112.926;2022-08-19T08:10:34;36.50;41.80
41953;DHT22;47381;28.206;112.926;2022-08-19T08:13:10;36.50;41.40
41953;DHT22;47381;28.206;112.926;2022-08-19T08:15:39;36.60;42.00
41953;DHT22;47381;28.206;112.926;2022-08-19T08:18:18;36.70;41.70
41953;DHT22;47381;28.206;112.926;2022-08-19T08:20:52;36.70;41.50
41953;DHT22;47381;28.206;112.926;2022-08-19T08:23:24;36.60;41.70
41953;DHT22;47381;28.206;112.926;2022-08-19T08:25:57;36.60;41.50
41953;DHT22;47381;28.206;112.926;2022-08-19T08:28:26;36.60;41.30
41953;DHT22;47381;28.206;112.926;2022-08-19T08:30:54;36.60;41.50
41953;DHT22;47381;28.206;112.926;2022-08-19T08:33:24;36.60;41.50
41953;DHT22;47381;28.206;112.926;2022-08-19T08:35:51;36.60;40.70
41953;DHT22;47381;28.206;112.926;2022-08-19T08:38:19;36.60;41.00
41953;DHT22;47381;28.206;112.926;2022-08-19T08:40:49;36.50;40.90
41953;DHT22;47381;28.206;112.926;2022-08-19T08:43:38;36.50;41.30
41953;DHT22;47381;28.206;112.926;2022-08-19T08:46:21;36.50;41.10
41953;DHT22;47381;28.206;112.926;2022-08-19T08:49:18;36.50;41.80
41953;DHT22;47381;28.206;112.926;2022-08-19T08:51:52;36.40;41.00
41953;DHT22;47381;28.206;112.926;2022-08-19T08:54:44;36.40;41.60
41953;DHT22;47381;28.206;112.926;2022-08-19T08:57:20;36.40;41.10
41953;DHT22;47381;28.206;112.926;2022-08-19T08:59:53;36.40;41.10
41953;DHT22;47381;28.206;112.926;2022-08-19T09:02:24;36.40;41.30
41953;DHT22;47381;28.206;112.926;2022-08-19T09:04:54;36.40;40.80
41953;DHT22;47381;28.206;112.926;2022-08-19T09:10:32;36.30;41.10
41953;DHT22;47381;28.206;112.926;2022-08-19T09:15:52;36.40;41.30
41953;DHT22;47381;28.206;112.926;2022-08-19T09:18:20;36.30;41.30
41953;DHT22;47381;28.206;112.926;2022-08-19T09:20:47;36.30;41.30
41953;DHT22;47381;28.206;112.926;2022-08-19T09:23:15;36.20;41.10
41953;DHT22;47381;28.206;112.926;2022-08-19T09:25:43;36.20;41.50
41953;DHT22;47381;28.206;112.926;2022-08-19T09:28:10;36.30;41.20
41953;DHT22;47381;28.206;112.926;2022-08-19T09:30:41;36.20;41.40
41953;DHT22;47381;28.206;112.926;2022-08-19T09:33:08;36.20;41.00
41953;DHT22;47381;28.206;112.926;2022-08-19T09:35:35;36.20;41.70
41953;DHT22;47381;28.206;112.926;2022-08-19T09:38:03;36.20;41.30
41953;DHT22;47381;28.206;112.926;2022-08-19T09:40:31;36.20;41.20
41953;DHT22;47381;28.206;112.926;2022-08-19T09:42:59;36.10;41.00
41953;DHT22;47381;28.206;112.926;2022-08-19T09:45:29;36.10;40.20
41953;DHT22;47381;28.206;112.926;2022-08-19T09:47:56;36.20;40.20
41953;DHT22;47381;28.206;112.926;2022-08-19T09:50:24;36.20;40.30
41953;DHT22;47381;28.206;112.926;2022-08-19T09:52:51;36.10;40.60
41953;DHT22;47381;28.206;112.926;2022-08-19T09:55:20;36.10;40.90
41953;DHT22;47381;28.206;112.926;2022-08-19T09:57:47;36.10;41.10
41953;DHT22;47381;28.206;112.926;2022-08-19T10:00:14;36.10;41.10
41953;DHT22;47381;28.206;112.926;2022-08-19T10:02:42;36.10;41.50
41953;DHT22;47381;28.206;112.926;2022-08-19T10:05:09;36.10;40.50
41953;DHT22;47381;28.206;112.926;2022-08-19T10:07:54;36.00;40.90
41953;DHT22;47381;28.206;112.926;2022-08-19T10:10:23;36.10;39.30
41953;DHT22;47381;28.206;112.926;2022-08-19T10:12:51;36.00;41.10
41953;DHT22;47381;28.206;112.926;2022-08-19T10:15:18;36.00;39.60
41953;DHT22;47381;28.206;112.926;2022-08-19T10:17:47;36.00;40.30
41953;DHT22;47381;28.206;112.926;2022-08-19T10:20:16;35.90;40.80
41953;DHT22;47381;28.206;112.926;2022-08-19T10:22:44;35.90;41.60
41953;DHT22;47381;28.206;112.926;2022-08-19T10:25:11;35.90;42.10
41953;DHT22;47381;28.206;112.926;2022-08-19T10:27:42;35.90;42.30
41953;DHT22;47381;28.206;112.926;2022-08-19T10:30:10;35.90;42.50
41953;DHT22;47381;28.206;112.926;2022-08-19T10:32:58;35.90;42.80
41953;DHT22;47381;28.206;112.926;2022-08-19T10:35:25;35.90;39.30
41953;DHT22;47381;28.206;112.926;2022-08-19T10:37:56;35.90;40.00
41953;DHT22;47381;28.206;112.926;2022-08-19T10:40:28;35.90;41.90
41953;DHT22;47381;28.206;112.926;2022-08-19T10:42:55;35.80;42.70
41953;DHT22;47381;28.206;112.926;2022-08-19T10:45:23;35.80;42.20
41953;DHT22;47381;28.206;112.926;2022-08-19T10:47:56;35.80;42.90
41953;DHT22;47381;28.206;112.926;2022-08-19T10:50:24;35.80;43.00
41953;DHT22;47381;28.206;112.926;2022-08-19T10:53:26;35.80;43.70
41953;DHT22;47381;28.206;112.926;2022-08-19T10:55:54;35.80;43.80
41953;DHT22;47381;28.206;112.926;2022-08-19T10:58:39;35.80;43.90
41953;DHT22;47381;28.206;112.926;2022-08-19T11:01:08;35.70;44.20
41953;DHT22;47381;28.206;112.926;2022-08-19T11:03:35;35.80;43.60
41953;DHT22;47381;28.206;112.926;2022-08-19T11:06:22;35.70;44.40
41953;DHT22;47381;28.206;112.926;2022-08-19T11:08:52;35.70;44.40
41953;DHT22;47381;28.206;112.926;2022-08-19T11:11:21;35.70;44.10
41953;DHT22;47381;28.206;112.926;2022-08-19T11:13:49;35.70;44.40
41953;DHT22;47381;28.206;112.926;2022-08-19T11:16:20;35.70;44.30
41953;DHT22;47381;28.206;112.926;2022-08-19T11:18:53;35.70;44.00
41953;DHT22;47381;28.206;112.926;2022-08-19T11:21:30;35.70;44.00
41953;DHT22;47381;28.206;112.926;2022-08-19T11:24:21;35.70;44.10
41953;DHT22;47381;28.206;112.926;2022-08-19T11:26:51;35.70;44.00
41953;DHT22;47381;28.206;112.926;2022-08-19T11:29:20;35.60;41.90
41953;DHT22;47381;28.206;112.926;2022-08-19T11:32:10;35.60;42.40
41953;DHT22;47381;28.206;112.926;2022-08-19T11:34:38;35.50;41.10
41953;DHT22;47381;28.206;112.926;2022-08-19T11:37:05;35.50;40.60
41953;DHT22;47381;28.206;112.926;2022-08-19T11:39:35;35.50;40.20
41953;DHT22;47381;28.206;112.926;2022-08-19T11:42:05;35.50;40.70
41953;DHT22;47381;28.206;112.926;2022-08-19T11:45:00;35.50;40.80
41953;DHT22;47381;28.206;112.926;2022-08-19T11:47:30;35.50;43.40
41953;DHT22;47381;28.206;112.926;2022-08-19T11:49:57;35.50;44.30
41953;DHT22;47381;28.206;112.926;2022-08-19T11:52:24;35.50;45.10
41953;DHT22;47381;28.206;112.926;2022-08-19T11:54:52;35.50;45.60
41953;DHT22;47381;28.206;112.926;2022-08-19T11:57:20;35.50;45.20
41953;DHT22;47381;28.206;112.926;2022-08-19T11:59:51;35.50;45.00
41953;DHT22;47381;28.206;112.926;2022-08-19T12:02:19;35.40;44.20
41953;DHT22;47381;28.206;112.926;2022-08-19T12:04:49;35.40;45.30
41953;DHT22;47381;28.206;112.926;2022-08-19T12:07:16;35.40;45.10
41953;DHT22;47381;28.206;112.926;2022-08-19T12:09:43;35.40;44.00
41953;DHT22;47381;28.206;112.926;2022-08-19T12:12:11;35.40;43.40
41953;DHT22;47381;28.206;112.926;2022-08-19T12:14:38;35.40;44.50
41953;DHT22;47381;28.206;112.926;2022-08-19T12:17:06;35.40;43.80
41953;DHT22;47381;28.206;112.926;2022-08-19T12:19:37;35.30;42.20
41953;DHT22;47381;28.206;112.926;2022-08-19T12:22:05;35.30;41.70
41953;DHT22;47381;28.206;112.926;2022-08-19T12:24:35;35.20;43.90
41953;DHT22;47381;28.206;112.926;2022-08-19T12:27:05;35.30;44.80
41953;DHT22;47381;28.206;112.926;2022-08-19T12:29:33;35.30;44.30
41953;DHT22;47381;28.206;112.926;2022-08-19T12:32:00;35.30;44.00
41953;DHT22;47381;28.206;112.926;2022-08-19T12:34:32;35.30;43.70
41953;DHT22;47381;28.206;112.926;2022-08-19T12:37:04;35.30;44.50
41953;DHT22;47381;28.206;112.926;2022-08-19T12:39:37;35.30;45.80
41953;DHT22;47381;28.206;112.926;2022-08-19T12:42:09;35.30;46.20
41953;DHT22;47381;28.206;112.926;2022-08-19T12:44:38;35.30;46.30
41953;DHT22;47381;28.206;112.926;2022-08-19T12:47:06;35.30;46.50
41953;DHT22;47381;28.206;112.926;2022-08-19T12:49:35;35.30;46.10
41953;DHT22;47381;28.206;112.926;2022-08-19T12:52:04;35.30;45.10
41953;DHT22;47381;28.206;112.926;2022-08-19T12:54:32;35.30;45.40
41953;DHT22;47381;28.206;112.926;2022-08-19T12:57:04;35.20;46.10
41953;DHT22;47381;28.206;112.926;2022-08-19T12:59:31;35.20;46.50
41953;DHT22;47381;28.206;112.926;2022-08-19T13:01:58;35.20;46.80
41953;DHT22;47381;28.206;112.926;2022-08-19T13:04:25;35.30;46.70
41953;DHT22;47381;28.206;112.926;2022-08-19T13:06:53;35.20;46.40
41953;DHT22;47381;28.206;112.926;2022-08-19T13:09:20;35.20;47.10
41953;DHT22;47381;28.206;112.926;2022-08-19T13:11:47;35.20;47.20
41953;DHT22;47381;28.206;112.926;2022-08-19T13:14:16;35.20;47.50
41953;DHT22;47381;28.206;112.926;2022-08-19T13:16:43;35.30;47.60
41953;DHT22;47381;28.206;112.926;2022-08-19T13:19:11;35.20;47.70
41953;DHT22;47381;28.206;112.926;2022-08-19T13:21:39;35.20;48.10
41953;DHT22;47381;28.206;112.926;2022-08-19T13:24:10;35.30;48.30
41953;DHT22;47381;28.206;112.926;2022-08-19T13:26:41;35.30;48.30
41953;DHT22;47381;28.206;112.926;2022-08-19T13:29:08;35.20;47.60
41953;DHT22;47381;28.206;112.926;2022-08-19T13:31:54;35.20;47.70
41953;DHT22;47381;28.206;112.926;2022-08-19T13:34:39;35.20;48.00
41953;DHT22;47381;28.206;112.926;2022-08-19T13:37:06;35.20;47.80
41953;DHT22;47381;28.206;112.926;2022-08-19T13:39:34;35.20;47.80
41953;DHT22;47381;28.206;112.926;2022-08-19T13:42:02;35.20;48.10
41953;DHT22;47381;28.206;112.926;2022-08-19T13:44:31;35.20;48.30
41953;DHT22;47381;28.206;112.926;2022-08-19T13:47:05;35.20;47.50
41953;DHT22;47381;28.206;112.926;2022-08-19T13:49:34;35.20;48.20
41953;DHT22;47381;28.206;112.926;2022-08-19T13:52:06;35.20;47.00
41953;DHT22;47381;28.206;112.926;2022-08-19T13:54:34;35.20;47.50
41953;DHT22;47381;28.206;112.926;2022-08-19T13:57:05;35.20;48.10
41953;DHT22;47381;28.206;112.926;2022-08-19T13:59:39;35.20;48.30
41953;DHT22;47381;28.206;112.926;2022-08-19T14:02:08;35.20;48.30
41953;DHT22;47381;28.206;112.926;2022-08-19T14:04:40;35.20;48.20
41953;DHT22;47381;28.206;112.926;2022-08-19T14:07:08;35.20;48.40
41953;DHT22;47381;28.206;112.926;2022-08-19T14:09:36;35.20;48.30
41953;DHT22;47381;28.206;112.926;2022-08-19T14:12:04;35.20;48.40
41953;DHT22;47381;28.206;112.926;2022-08-19T14:14:31;35.20;48.50
41953;DHT22;47381;28.206;112.926;2022-08-19T14:17:00;35.20;48.30
41953;DHT22;47381;28.206;112.926;2022-08-19T14:19:28;35.10;48.40
41953;DHT22;47381;28.206;112.926;2022-08-19T14:21:56;35.10;48.50
41953;DHT22;47381;28.206;112.926;2022-08-19T14:24:24;35.10;48.30
41953;DHT22;47381;28.206;112.926;2022-08-19T14:26:51;35.10;47.60
41953;DHT22;47381;28.206;112.926;2022-08-19T14:29:18;35.10;47.90
41953;DHT22;47381;28.206;112.926;2022-08-19T14:31:46;35.10;47.70
41953;DHT22;47381;28.206;112.926;2022-08-19T14:34:13;35.10;46.10
41953;DHT22;47381;28.206;112.926;2022-08-19T14:36:41;35.10;46.50
41953;DHT22;47381;28.206;112.926;2022-08-19T14:39:14;35.10;47.60
41953;DHT22;47381;28.206;112.926;2022-08-19T14:41:44;35.10;47.70
41953;DHT22;47381;28.206;112.926;2022-08-19T14:44:12;35.10;47.90
41953;DHT22;47381;28.206;112.926;2022-08-19T14:46:40;35.10;48.00
41953;DHT22;47381;28.206;112.926;2022-08-19T14:49:08;35.00;47.90
41953;DHT22;47381;28.206;112.926;2022-08-19T14:51:37;35.10;48.10
41953;DHT22;47381;28.206;112.926;2022-08-19T14:54:05;35.10;48.10
41953;DHT22;47381;28.206;112.926;2022-08-19T14:56:32;35.10;48.40
41953;DHT22;47381;28.206;112.926;2022-08-19T14:58:59;35.10;48.50
41953;DHT22;47381;28.206;112.926;2022-08-19T15:01:28;35.10;48.60
41953;DHT22;47381;28.206;112.926;2022-08-19T15:03:56;35.10;48.30
41953;DHT22;47381;28.206;112.926;2022-08-19T15:06:24;35.10;48.40
41953;DHT22;47381;28.206;112.926;2022-08-19T15:08:52;35.10;48.30
41953;DHT22;47381;28.206;112.926;2022-08-19T15:11:24;35.10;48.50
41953;DHT22;47381;28.206;112.926;2022-08-19T15:13:53;35.10;48.30
41953;DHT22;47381;28.206;112.926;2022-08-19T15:16:22;35.10;48.10
41953;DHT22;47381;28.206;112.926;2022-08-19T15:19:09;35.10;48.40
41953;DHT22;47381;28.206;112.926;2022-08-19T15:21:39;35.10;48.40
41953;DHT22;47381;28.206;112.926;2022-08-19T15:24:07;35.10;48.40
41953;DHT22;47381;28.206;112.926;2022-08-19T15:26:35;35.10;48.50
41953;DHT22;47381;28.206;112.926;2022-08-19T15:29:04;35.10;48.00
41953;DHT22;47381;28.206;112.926;2022-08-19T15:31:31;35.10;48.20
41953;DHT22;47381;28.206;112.926;2022-08-19T15:34:02;35.10;48.40
41953;DHT22;47381;28.206;112.926;2022-08-19T15:36:32;35.10;48.60
41953;DHT22;47381;28.206;112.926;2022-08-19T15:39:02;35.10;48.20
41953;DHT22;47381;28.206;112.926;2022-08-19T15:41:31;35.10;48.50
41953;DHT22;47381;28.206;112.926;2022-08-19T15:44:03;35.10;45.60
41953;DHT22;47381;28.206;112.926;2022-08-19T15:46:37;35.00;47.10
41953;DHT22;47381;28.206;112.926;2022-08-19T15:49:05;35.00;47.80
41953;DHT22;47381;28.206;112.926;2022-08-19T15:51:37;35.00;47.60